createdAt,value
2019-02-24T00:00:42.795Z,86.10
2019-02-24T00:03:12.976Z,86.50
2019-02-24T00:05:43.154Z,87.30
2019-02-24T00:08:13.413Z,86.30
2019-02-24T00:10:43.610Z,86.50
2019-02-24T00:13:13.798Z,85.90
2019-02-24T00:15:44.016Z,86.30
2019-02-24T00:18:15.334Z,86.30
2019-02-24T00:20:45.399Z,86.70
2019-02-24T00:23:15.577Z,86.10
2019-02-24T00:25:45.722Z,86.70
2019-02-24T00:28:15.843Z,87.40
2019-02-24T00:30:45.905Z,84.50
2019-02-24T00:33:16.070Z,86.00
2019-02-24T00:35:46.210Z,86.20
2019-02-24T00:38:16.373Z,85.80
2019-02-24T00:40:47.573Z,86.40
2019-02-24T00:43:17.762Z,87.30
2019-02-24T00:45:48.028Z,86.20
2019-02-24T00:48:18.164Z,84.80
2019-02-24T00:50:48.259Z,84.60
2019-02-24T00:53:18.452Z,84.90
2019-02-24T00:55:48.949Z,84.60
2019-02-24T00:58:19.146Z,84.40
2019-02-24T01:00:49.325Z,84.60
2019-02-24T01:03:19.613Z,84.80
2019-02-24T01:05:49.950Z,84.30
2019-02-24T01:08:20.162Z,84.40
2019-02-24T01:10:50.376Z,84.40
2019-02-24T01:13:20.539Z,83.90
2019-02-24T01:15:51.699Z,84.30
2019-02-24T01:18:21.905Z,84.10
2019-02-24T01:20:52.066Z,83.20
2019-02-24T01:23:22.254Z,83.00
2019-02-24T01:25:52.379Z,83.60
2019-02-24T01:28:25.348Z,83.80
2019-02-24T01:30:54.553Z,85.60
2019-02-24T01:33:24.773Z,85.10
2019-02-24T01:35:54.932Z,83.00
2019-02-24T01:38:25.165Z,82.30
2019-02-24T01:40:55.325Z,80.90
2019-02-24T01:43:25.558Z,80.70
2019-02-24T01:45:55.759Z,81.30
2019-02-24T01:48:25.953Z,80.40
2019-02-24T01:50:56.183Z,81.80
2019-02-24T01:53:26.321Z,82.50
2019-02-24T01:55:56.649Z,82.40
2019-02-24T01:58:34.838Z,80.40
2019-02-24T02:00:59.766Z,80.40
2019-02-24T02:03:30.001Z,81.70
2019-02-24T02:06:01.281Z,82.10
2019-02-24T02:08:31.397Z,79.90
2019-02-24T02:11:01.626Z,82.40
2019-02-24T02:13:31.756Z,79.30
2019-02-24T02:16:01.922Z,81.20
2019-02-24T02:18:32.090Z,81.40
2019-02-24T02:21:02.418Z,80.80
2019-02-24T02:23:32.742Z,80.60
2019-02-24T02:26:02.816Z,81.30
2019-02-24T02:28:32.901Z,80.20
2019-02-24T02:31:03.128Z,79.50
2019-02-24T02:33:33.388Z,80.50
2019-02-24T02:36:03.556Z,81.00
2019-02-24T02:38:33.793Z,81.30
2019-02-24T02:41:04.017Z,79.50
2019-02-24T02:43:34.161Z,79.60
2019-02-24T02:46:04.327Z,80.60
2019-02-24T02:48:34.491Z,79.70
2019-02-24T02:51:04.703Z,80.50
2019-02-24T02:53:34.772Z,80.60
2019-02-24T02:56:04.855Z,80.40
2019-02-24T02:58:34.984Z,81.00
2019-02-24T03:01:05.122Z,80.40
2019-02-24T03:03:35.437Z,81.00
2019-02-24T03:06:25.849Z,81.30
2019-02-24T03:08:55.922Z,81.20
2019-02-24T03:11:26.154Z,81.50
2019-02-24T03:13:56.319Z,80.70
2019-02-24T03:16:28.137Z,81.30
2019-02-24T03:18:58.374Z,81.10
2019-02-24T03:21:29.590Z,80.70
2019-02-24T03:23:59.777Z,80.70
2019-02-24T03:26:29.930Z,81.60
2019-02-24T03:29:04.139Z,80.70
2019-02-24T03:31:31.997Z,81.50
2019-02-24T03:34:02.225Z,79.20
2019-02-24T03:36:32.485Z,78.60
2019-02-24T03:39:02.675Z,79.90
2019-02-24T03:41:34.258Z,80.10
2019-02-24T03:44:04.457Z,79.30
2019-02-24T03:46:34.531Z,80.40
2019-02-24T03:49:04.658Z,79.90
2019-02-24T03:51:34.781Z,79.70
2019-02-24T03:54:04.930Z,80.40
2019-02-24T03:56:35.095Z,79.00
2019-02-24T03:59:14.746Z,78.50
2019-02-24T04:01:37.106Z,79.30
2019-02-24T04:04:07.263Z,80.20
2019-02-24T04:06:37.573Z,79.00
2019-02-24T04:09:09.578Z,79.20
2019-02-24T04:11:39.806Z,79.60
2019-02-24T04:14:10.878Z,80.00
2019-02-24T04:16:41.015Z,79.90
2019-02-24T04:19:11.151Z,80.20
2019-02-24T04:21:41.367Z,78.60
2019-02-24T04:24:11.594Z,79.30
2019-02-24T04:26:41.733Z,80.60
2019-02-24T04:29:11.934Z,79.40
2019-02-24T04:31:42.134Z,80.90
2019-02-24T04:34:12.225Z,80.90
2019-02-24T04:36:42.404Z,81.50
2019-02-24T04:39:12.633Z,81.20
2019-02-24T04:41:42.786Z,80.60
2019-02-24T04:44:12.993Z,80.20
2019-02-24T04:46:43.122Z,81.10
2019-02-24T04:49:13.273Z,81.50
2019-02-24T04:51:43.388Z,80.80
2019-02-24T04:54:13.577Z,81.80
2019-02-24T04:56:43.780Z,82.20
2019-02-24T04:59:13.923Z,82.60
2019-02-24T05:01:44.140Z,82.20
2019-02-24T05:04:14.305Z,81.80
2019-02-24T05:06:44.564Z,81.50
2019-02-24T05:09:14.731Z,81.60
2019-02-24T05:11:45.141Z,81.60
2019-02-24T05:14:15.369Z,81.70
2019-02-24T05:16:45.497Z,82.30
2019-02-24T05:19:15.634Z,81.30
2019-02-24T05:21:45.690Z,81.40
2019-02-24T05:24:15.844Z,80.50
2019-02-24T05:26:45.910Z,80.80
2019-02-24T05:29:16.108Z,82.10
2019-02-24T05:31:46.250Z,81.20
2019-02-24T05:34:16.423Z,82.50
2019-02-24T05:36:46.569Z,81.60
2019-02-24T05:39:16.727Z,82.30
2019-02-24T05:41:46.786Z,83.40
2019-02-24T05:44:17.038Z,83.30
2019-02-24T05:46:47.234Z,82.40
2019-02-24T05:49:17.449Z,82.70
2019-02-24T05:51:47.671Z,84.50
2019-02-24T05:54:17.780Z,84.00
2019-02-24T05:56:47.999Z,83.30
2019-02-24T05:59:18.130Z,83.80
2019-02-24T06:01:48.308Z,84.20
2019-02-24T06:04:18.641Z,84.70
2019-02-24T06:06:48.867Z,84.80
2019-02-24T06:09:20.016Z,84.70
2019-02-24T06:11:50.223Z,83.80
2019-02-24T06:14:20.367Z,83.50
2019-02-24T06:16:50.573Z,83.20
2019-02-24T06:19:20.743Z,82.50
2019-02-24T06:21:50.979Z,82.30
2019-02-24T06:24:21.233Z,81.10
2019-02-24T06:26:51.513Z,81.80
2019-02-24T06:29:21.717Z,82.40
2019-02-24T06:31:51.853Z,82.80
2019-02-24T06:34:22.009Z,83.00
2019-02-24T06:36:52.141Z,82.70
2019-02-24T06:39:22.366Z,82.00
2019-02-24T06:41:54.581Z,81.90
2019-02-24T06:44:24.729Z,81.40
2019-02-24T06:46:54.921Z,82.40
2019-02-24T06:49:25.152Z,81.60
2019-02-24T06:51:55.359Z,82.00
2019-02-24T06:54:25.518Z,81.80
2019-02-24T06:56:55.634Z,82.00
2019-02-24T06:59:25.802Z,82.30
2019-02-24T07:01:56.386Z,82.40
2019-02-24T07:04:26.515Z,83.40
2019-02-24T07:06:56.783Z,82.60
2019-02-24T07:09:26.913Z,81.30
2019-02-24T07:11:57.051Z,82.10
2019-02-24T07:14:27.214Z,82.10
2019-02-24T07:16:57.351Z,82.30
2019-02-24T07:19:27.563Z,82.50
2019-02-24T07:21:57.717Z,82.30
2019-02-24T07:24:27.885Z,81.70
2019-02-24T07:26:58.089Z,81.50
2019-02-24T07:29:28.377Z,81.40
2019-02-24T07:31:58.626Z,81.50
2019-02-24T07:34:28.889Z,81.30
2019-02-24T07:36:59.065Z,81.60
2019-02-24T07:39:29.135Z,79.90
2019-02-24T07:41:59.294Z,80.30
2019-02-24T07:44:29.362Z,81.60
2019-02-24T07:46:59.549Z,79.80
2019-02-24T07:49:29.785Z,80.90
2019-02-24T07:52:00.105Z,80.90
2019-02-24T07:54:30.327Z,80.40
2019-02-24T07:57:00.614Z,79.80
2019-02-24T07:59:30.789Z,80.50
2019-02-24T08:02:00.970Z,81.10
2019-02-24T08:04:32.252Z,81.50
2019-02-24T08:07:02.486Z,80.70
2019-02-24T08:09:32.666Z,79.60
2019-02-24T08:12:02.877Z,79.20
2019-02-24T08:14:33.028Z,79.40
2019-02-24T08:17:03.163Z,79.50
2019-02-24T08:19:33.322Z,78.30
2019-02-24T08:22:03.474Z,77.50
2019-02-24T08:24:34.665Z,78.30
2019-02-24T08:27:04.890Z,75.20
2019-02-24T08:29:36.046Z,75.10
2019-02-24T08:32:06.174Z,76.30
2019-02-24T08:34:36.245Z,76.30
2019-02-24T08:37:06.379Z,73.70
2019-02-24T08:39:36.511Z,73.30
2019-02-24T08:42:06.685Z,72.40
2019-02-24T08:44:36.847Z,73.50
2019-02-24T08:47:07.081Z,72.80
2019-02-24T08:49:37.234Z,73.20
2019-02-24T08:52:07.443Z,74.10
2019-02-24T08:54:37.611Z,74.30
2019-02-24T08:57:07.795Z,73.30
2019-02-24T08:59:38.416Z,73.30
2019-02-24T09:02:08.558Z,73.10
2019-02-24T09:04:38.709Z,72.70
2019-02-24T09:07:08.885Z,73.70
2019-02-24T09:09:39.034Z,73.00
2019-02-24T09:12:09.081Z,73.30
2019-02-24T09:14:39.510Z,73.10
2019-02-24T09:17:09.655Z,72.20
2019-02-24T09:19:39.929Z,70.60
2019-02-24T09:22:10.119Z,72.20
2019-02-24T09:24:40.356Z,71.40
2019-02-24T09:27:10.565Z,70.40
2019-02-24T09:29:40.711Z,69.40
2019-02-24T09:32:10.857Z,68.40
2019-02-24T09:34:41.063Z,69.70
2019-02-24T09:37:11.321Z,72.20
2019-02-24T09:39:41.493Z,73.80
2019-02-24T09:42:11.563Z,72.70
2019-02-24T09:44:41.804Z,71.70
2019-02-24T09:47:12.990Z,72.00
2019-02-24T09:49:43.130Z,74.00
2019-02-24T09:52:13.333Z,71.30
2019-02-24T09:54:43.454Z,72.10
2019-02-24T09:57:13.598Z,72.30
2019-02-24T09:59:43.714Z,72.30
2019-02-24T10:02:14.008Z,73.90
2019-02-24T10:04:44.198Z,73.30
2019-02-24T10:07:14.403Z,72.60
2019-02-24T10:09:44.554Z,73.70
2019-02-24T10:12:15.667Z,74.50
2019-02-24T10:14:45.962Z,75.00
2019-02-24T10:17:16.098Z,73.30
2019-02-24T10:19:46.276Z,72.20
2019-02-24T10:22:16.464Z,74.50
2019-02-24T10:24:46.593Z,75.40
2019-02-24T10:27:16.733Z,71.10
2019-02-24T10:29:46.897Z,69.40
2019-02-24T10:32:17.109Z,66.70
2019-02-24T10:34:47.321Z,65.50
2019-02-24T10:37:17.511Z,65.20
2019-02-24T10:39:47.646Z,66.00
2019-02-24T10:42:17.829Z,67.70
2019-02-24T10:44:47.964Z,68.70
2019-02-24T10:47:18.175Z,68.20
2019-02-24T10:49:48.566Z,67.90
2019-02-24T10:52:18.786Z,67.00
2019-02-24T10:54:49.202Z,66.80
2019-02-24T10:57:19.619Z,66.30
2019-02-24T10:59:50.315Z,66.70
2019-02-24T11:02:20.638Z,67.60
2019-02-24T11:04:50.928Z,65.60
2019-02-24T11:07:21.482Z,65.70
2019-02-24T11:09:52.097Z,66.30
2019-02-24T11:12:22.739Z,64.10
2019-02-24T11:14:53.091Z,63.20
2019-02-24T11:17:23.298Z,61.80
2019-02-24T11:19:53.562Z,63.50
2019-02-24T11:22:26.237Z,61.60
2019-02-24T11:24:56.474Z,61.70
2019-02-24T11:27:26.688Z,61.10
2019-02-24T11:29:56.901Z,61.90
2019-02-24T11:32:27.293Z,63.10
2019-02-24T11:34:57.523Z,63.60
2019-02-24T11:37:27.658Z,63.40
2019-02-24T11:39:58.442Z,62.50
2019-02-24T11:42:28.785Z,64.10
2019-02-24T11:44:58.969Z,66.80
2019-02-24T11:47:29.179Z,67.20
2019-02-24T11:49:59.597Z,65.40
2019-02-24T11:52:29.839Z,64.50
2019-02-24T11:55:00.049Z,65.10
2019-02-24T11:57:30.302Z,65.50
2019-02-24T12:00:00.574Z,64.00
2019-02-24T12:02:34.410Z,64.20
2019-02-24T12:05:02.850Z,66.70
2019-02-24T12:07:33.122Z,65.60
2019-02-24T12:10:03.764Z,63.70
2019-02-24T12:12:34.010Z,65.70
2019-02-24T12:15:04.149Z,65.10
2019-02-24T12:17:35.058Z,64.10
2019-02-24T12:20:06.196Z,65.20
2019-02-24T12:22:36.514Z,66.10
2019-02-24T12:25:07.332Z,66.00
2019-02-24T12:27:37.476Z,66.10
2019-02-24T12:30:08.494Z,67.10
2019-02-24T12:32:38.726Z,66.10
2019-02-24T12:35:08.877Z,65.50
2019-02-24T12:37:40.241Z,63.80
2019-02-24T12:40:10.424Z,63.20
2019-02-24T12:42:41.726Z,62.90
2019-02-24T12:45:12.065Z,63.30
2019-02-24T12:47:42.293Z,63.30
2019-02-24T12:50:12.492Z,63.80
2019-02-24T12:52:42.677Z,63.60
2019-02-24T12:55:13.099Z,64.10
2019-02-24T12:57:43.545Z,64.10
2019-02-24T13:00:16.517Z,64.60
2019-02-24T13:02:46.841Z,63.90
2019-02-24T13:05:17.066Z,61.40
2019-02-24T13:07:47.321Z,61.50
2019-02-24T13:10:17.687Z,62.10
2019-02-24T13:12:47.911Z,64.50
2019-02-24T13:15:18.100Z,64.40
2019-02-24T13:17:48.584Z,65.10
2019-02-24T13:20:18.837Z,64.90
2019-02-24T13:22:49.120Z,62.30
2019-02-24T13:25:19.218Z,63.60
2019-02-24T13:27:49.305Z,63.40
2019-02-24T13:30:19.613Z,63.50
2019-02-24T13:32:50.085Z,63.80
2019-02-24T13:35:20.306Z,64.70
2019-02-24T13:37:53.214Z,64.60
2019-02-24T13:40:23.600Z,65.30
2019-02-24T13:42:53.781Z,67.50
2019-02-24T13:45:24.276Z,67.90
2019-02-24T13:47:54.490Z,66.80
2019-02-24T13:50:24.745Z,66.90
2019-02-24T13:52:55.064Z,65.90
2019-02-24T13:55:25.131Z,68.60
2019-02-24T13:57:55.329Z,65.50
2019-02-24T14:00:25.473Z,66.10
2019-02-24T14:02:55.716Z,66.60
2019-02-24T14:05:25.926Z,64.70
2019-02-24T14:07:56.112Z,64.40
2019-02-24T14:10:26.324Z,65.60
2019-02-24T14:12:56.715Z,64.90
2019-02-24T14:15:26.977Z,66.60
2019-02-24T14:17:57.166Z,65.50
2019-02-24T14:20:27.326Z,65.00
2019-02-24T14:22:57.470Z,67.20
2019-02-24T14:25:27.715Z,66.50
2019-02-24T14:27:58.019Z,67.40
2019-02-24T14:30:28.156Z,69.00
2019-02-24T14:32:58.323Z,68.80
2019-02-24T14:35:28.426Z,67.20
2019-02-24T14:37:58.596Z,70.80
2019-02-24T14:40:28.874Z,69.00
2019-02-24T14:42:59.188Z,67.70
2019-02-24T14:45:29.403Z,68.00
2019-02-24T14:47:59.550Z,68.10
2019-02-24T14:50:29.708Z,68.00
2019-02-24T14:52:59.942Z,70.20
2019-02-24T14:55:30.146Z,69.30
2019-02-24T14:58:00.298Z,70.10
2019-02-24T15:00:30.403Z,69.60
2019-02-24T15:03:00.727Z,69.70
2019-02-24T15:05:31.006Z,71.20
2019-02-24T15:08:01.136Z,70.10
2019-02-24T15:10:31.373Z,70.20
2019-02-24T15:13:02.705Z,70.40
2019-02-24T15:15:33.488Z,69.70
2019-02-24T15:18:03.725Z,72.30
2019-02-24T15:20:34.437Z,71.70
2019-02-24T15:23:06.602Z,71.90
2019-02-24T15:25:38.052Z,71.70
2019-02-24T15:28:08.341Z,71.60
2019-02-24T15:30:38.530Z,74.50
2019-02-24T15:33:08.792Z,72.50
2019-02-24T15:35:41.742Z,73.80
2019-02-24T15:38:11.863Z,73.40
2019-02-24T15:40:42.098Z,75.20
2019-02-24T15:43:12.291Z,75.00
2019-02-24T15:45:42.486Z,73.60
2019-02-24T15:48:12.726Z,74.30
2019-02-24T15:50:42.912Z,73.10
2019-02-24T15:53:13.162Z,74.70
2019-02-24T15:55:43.295Z,74.10
2019-02-24T15:58:13.457Z,75.50
2019-02-24T16:00:43.599Z,77.00
2019-02-24T16:03:13.734Z,76.50
2019-02-24T16:05:43.918Z,77.30
2019-02-24T16:08:14.049Z,77.70
2019-02-24T16:10:44.254Z,76.90
2019-02-24T16:13:16.925Z,76.80
2019-02-24T16:15:46.297Z,78.20
2019-02-24T16:18:16.559Z,78.10
2019-02-24T16:20:46.733Z,79.80
2019-02-24T16:23:16.822Z,79.20
2019-02-24T16:25:47.006Z,80.60
2019-02-24T16:28:17.144Z,80.60
2019-02-24T16:30:47.350Z,81.20
2019-02-24T16:33:17.666Z,82.30
2019-02-24T16:35:47.890Z,82.60
2019-02-24T16:38:18.270Z,83.20
2019-02-24T16:40:48.519Z,83.60
2019-02-24T16:43:18.808Z,84.00
2019-02-24T16:45:50.277Z,84.20
2019-02-24T16:48:22.791Z,85.40
2019-02-24T16:50:53.034Z,84.80
2019-02-24T16:53:23.248Z,86.10
2019-02-24T16:55:53.445Z,85.70
2019-02-24T16:58:23.751Z,85.80
2019-02-24T17:00:54.986Z,86.60
2019-02-24T17:03:25.209Z,86.50
2019-02-24T17:05:55.396Z,86.90
2019-02-24T17:08:25.742Z,87.60
2019-02-24T17:10:55.938Z,88.10
2019-02-24T17:13:26.174Z,88.60
2019-02-24T17:15:56.364Z,88.60
2019-02-24T17:18:26.460Z,88.90
2019-02-24T17:20:56.710Z,89.00
2019-02-24T17:23:26.913Z,89.10
2019-02-24T17:25:57.006Z,89.40
2019-02-24T17:28:27.314Z,89.00
2019-02-24T17:30:57.632Z,89.10
2019-02-24T17:33:30.239Z,89.60
2019-02-24T17:35:59.759Z,89.70
2019-02-24T17:38:29.987Z,89.60
2019-02-24T17:41:00.219Z,89.70
2019-02-24T17:43:30.474Z,89.90
2019-02-24T17:46:00.749Z,90.20
2019-02-24T17:48:30.995Z,90.40
2019-02-24T17:51:01.298Z,90.50
2019-02-24T17:53:31.565Z,90.70
2019-02-24T17:56:01.813Z,90.80
2019-02-24T17:58:32.045Z,91.00
2019-02-24T18:01:04.194Z,91.30
2019-02-24T18:03:39.332Z,91.50
2019-02-24T18:06:06.216Z,91.50
2019-02-24T18:08:36.805Z,91.60
2019-02-24T18:11:07.014Z,91.60
2019-02-24T18:13:37.165Z,91.90
2019-02-24T18:16:07.217Z,92.20
2019-02-24T18:18:37.356Z,92.10
2019-02-24T18:21:07.603Z,92.50
2019-02-24T18:23:37.769Z,92.60
2019-02-24T18:26:08.079Z,92.40
2019-02-24T18:28:39.534Z,92.70
2019-02-24T18:31:09.679Z,92.70
2019-02-24T18:33:48.035Z,93.00
2019-02-24T18:36:11.900Z,92.90
2019-02-24T18:38:42.063Z,92.80
2019-02-24T18:41:12.929Z,92.80
2019-02-24T18:43:43.201Z,93.00
2019-02-24T18:46:13.373Z,93.20
2019-02-24T18:48:43.433Z,93.00
2019-02-24T18:51:13.626Z,92.90
2019-02-24T18:53:43.829Z,93.00
2019-02-24T18:56:14.088Z,93.00
2019-02-24T18:58:45.433Z,92.80
2019-02-24T19:01:15.841Z,92.90
2019-02-24T19:03:46.194Z,92.90
2019-02-24T19:06:16.573Z,93.10
2019-02-24T19:08:47.063Z,93.10
2019-02-24T19:11:17.279Z,93.10
2019-02-24T19:13:47.535Z,93.20
2019-02-24T19:16:20.617Z,93.30
2019-02-24T19:18:51.022Z,93.50
2019-02-24T19:21:21.936Z,93.40
2019-02-24T19:23:52.362Z,93.60
2019-02-24T19:26:23.862Z,93.70
2019-02-24T19:28:54.520Z,93.80
2019-02-24T19:31:26.981Z,93.80
2019-02-24T19:34:06.365Z,94.00
2019-02-24T19:36:31.093Z,94.10
2019-02-24T19:39:01.534Z,94.00
2019-02-24T19:41:33.351Z,94.60
2019-02-24T19:44:03.783Z,94.30
2019-02-24T19:46:34.376Z,94.30
2019-02-24T19:49:04.955Z,94.40
2019-02-24T19:51:47.228Z,94.40
2019-02-24T19:54:17.529Z,94.50
2019-02-24T19:56:47.795Z,94.50
2019-02-24T19:59:18.066Z,94.70
2019-02-24T20:01:48.206Z,94.70
2019-02-24T20:04:18.498Z,94.60
2019-02-24T20:06:48.746Z,94.70
2019-02-24T20:09:18.958Z,94.80
2019-02-24T20:11:49.122Z,94.80
2019-02-24T20:14:19.335Z,94.90
2019-02-24T20:16:49.498Z,95.10
2019-02-24T20:19:19.769Z,95.10
2019-02-24T20:21:50.118Z,95.20
2019-02-24T20:24:20.423Z,95.30
2019-02-24T20:26:52.097Z,95.50
2019-02-24T20:29:23.340Z,95.50
2019-02-24T20:31:53.724Z,95.70
2019-02-24T20:34:25.819Z,95.70
2019-02-24T20:36:55.821Z,95.80
2019-02-24T20:39:25.966Z,95.90
2019-02-24T20:41:56.154Z,96.00
2019-02-24T20:44:27.379Z,96.10
2019-02-24T20:46:57.495Z,96.00
2019-02-24T20:49:27.772Z,96.00
2019-02-24T20:51:57.990Z,96.00
2019-02-24T20:54:28.166Z,96.00
2019-02-24T20:56:58.387Z,95.60
2019-02-24T20:59:28.599Z,95.60
2019-02-24T21:01:58.725Z,95.60
2019-02-24T21:04:28.926Z,95.70
2019-02-24T21:06:59.167Z,95.70
2019-02-24T21:09:29.329Z,95.80
2019-02-24T21:11:59.532Z,95.70
2019-02-24T21:14:29.803Z,95.50
2019-02-24T21:17:00.034Z,95.50
2019-02-24T21:19:30.193Z,95.60
2019-02-24T21:22:00.703Z,95.90
2019-02-24T21:24:31.326Z,95.90
2019-02-24T21:27:01.582Z,95.90
2019-02-24T21:29:31.877Z,96.10
2019-02-24T21:32:01.961Z,96.10
2019-02-24T21:34:32.101Z,96.10
2019-02-24T21:37:02.376Z,96.10
2019-02-24T21:39:32.554Z,96.00
2019-02-24T21:42:02.780Z,96.00
2019-02-24T21:44:33.030Z,95.90
2019-02-24T21:47:03.231Z,95.80
2019-02-24T21:49:33.482Z,95.90
2019-02-24T21:52:04.551Z,96.00
2019-02-24T21:54:34.869Z,96.10
2019-02-24T21:57:05.141Z,96.00
2019-02-24T21:59:37.211Z,96.00
2019-02-24T22:02:07.154Z,96.00
2019-02-24T22:04:37.278Z,96.00
2019-02-24T22:07:08.485Z,96.00
2019-02-24T22:09:38.563Z,96.00
2019-02-24T22:12:08.760Z,96.10
2019-02-24T22:14:38.895Z,96.30
2019-02-24T22:17:09.086Z,96.40
2019-02-24T22:19:40.174Z,96.20
2019-02-24T22:22:10.294Z,96.50
2019-02-24T22:24:40.450Z,96.40
2019-02-24T22:27:10.718Z,96.50
2019-02-24T22:29:40.947Z,96.60
2019-02-24T22:32:11.087Z,96.90
2019-02-24T22:34:41.239Z,97.30
2019-02-24T22:37:11.429Z,96.90
2019-02-24T22:39:41.630Z,97.10
2019-02-24T22:42:11.803Z,97.10
2019-02-24T22:44:42.003Z,97.20
2019-02-24T22:47:12.137Z,97.30
2019-02-24T22:49:42.366Z,97.30
2019-02-24T22:52:13.422Z,97.30
2019-02-24T22:54:43.692Z,97.40
2019-02-24T22:57:13.852Z,97.50
2019-02-24T22:59:43.998Z,97.60
2019-02-24T23:02:15.770Z,97.40
2019-02-24T23:04:47.229Z,97.50
2019-02-24T23:07:17.305Z,97.50
2019-02-24T23:09:47.486Z,97.40
2019-02-24T23:12:17.705Z,97.60
2019-02-24T23:14:47.764Z,97.40
2019-02-24T23:17:17.916Z,97.30
2019-02-24T23:19:48.221Z,97.40
2019-02-24T23:22:18.473Z,97.30
2019-02-24T23:24:48.522Z,97.20
2019-02-24T23:27:18.684Z,97.20
2019-02-24T23:29:48.925Z,97.10
2019-02-24T23:32:19.160Z,97.00
2019-02-24T23:34:49.350Z,96.80
2019-02-24T23:37:19.426Z,96.90
2019-02-24T23:39:49.557Z,97.00
2019-02-24T23:42:19.770Z,96.80
2019-02-24T23:44:49.897Z,96.60
2019-02-24T23:47:20.071Z,96.40
2019-02-24T23:49:50.246Z,96.20
2019-02-24T23:52:21.401Z,95.90
2019-02-24T23:54:51.514Z,95.50
2019-02-24T23:57:21.669Z,95.10
2019-02-24T23:59:51.906Z,94.90
